Time;durP1;ratioP1;P1;durP2;ratioP2;P2;SDS_P1;SDS_P2;PMS_P1;PMS_P2;Temp;Humidity;BMP_temperature;BMP_pressure;BME280_temperature;BME280_humidity;BME280_pressure;Samples;Min_cycle;Max_cycle;Signal;HPM_P1;HPM_P2
2022/03/20 00:02:03;;;;;;;19.02;14.13;;;9.30;99.90;;;;;;4994745;28;20034;-68
2022/03/20 00:04:30;;;;;;;21.35;14.02;;;9.30;99.90;;;;;;4995316;28;20086;-68
2022/03/20 00:06:55;;;;;;;17.35;13.07;;;9.20;99.90;;;;;;4994975;28;20043;-68
2022/03/20 00:09:21;;;;;;;21.85;14.00;;;9.30;99.90;;;;;;4993045;28;20547;-68
2022/03/20 00:11:47;;;;;;;19.27;13.05;;;9.30;99.90;;;;;;4990392;28;20033;-68
2022/03/20 00:14:12;;;;;;;17.10;12.85;;;9.30;99.90;;;;;;4996645;28;20376;-68
2022/03/20 00:16:39;;;;;;;19.40;13.57;;;9.20;99.90;;;;;;4994691;28;20030;-68
2022/03/20 00:19:05;;;;;;;19.90;13.88;;;9.10;99.90;;;;;;4993217;28;20490;-68
2022/03/20 00:21:31;;;;;;;22.00;13.40;;;9.20;99.90;;;;;;4994800;28;20045;-68
2022/03/20 00:23:57;;;;;;;23.58;14.82;;;9.10;99.90;;;;;;4990833;28;20031;-68
2022/03/20 00:26:23;;;;;;;23.48;14.80;;;9.10;99.90;;;;;;4996653;28;20523;-68
2022/03/20 00:28:49;;;;;;;18.40;14.00;;;9.10;99.90;;;;;;4994156;28;20061;-68
2022/03/20 00:31:15;;;;;;;18.60;13.95;;;9.00;99.90;;;;;;4993045;28;20514;-69
2022/03/20 00:33:41;;;;;;;21.42;13.98;;;9.00;99.90;;;;;;4994900;28;20026;-68
2022/03/20 00:36:07;;;;;;;23.40;13.65;;;9.00;99.90;;;;;;4991670;28;20034;-68
2022/03/20 00:38:33;;;;;;;22.05;14.10;;;9.00;99.90;;;;;;4994159;28;20030;-68
2022/03/20 00:40:58;;;;;;;20.75;13.57;;;9.00;99.90;;;;;;4994299;28;20514;-68
2022/03/20 00:43:24;;;;;;;20.27;13.45;;;9.00;99.90;;;;;;4994104;28;20139;-68
2022/03/20 00:45:51;;;;;;;24.20;14.30;;;8.90;99.90;;;;;;4994364;28;20487;-68
2022/03/20 00:48:16;;;;;;;20.58;14.30;;;8.90;99.90;;;;;;4993264;28;20022;-68
2022/03/20 00:50:42;;;;;;;24.20;14.60;;;8.90;99.90;;;;;;4991380;28;20030;-67
2022/03/20 00:53:09;;;;;;;23.15;13.93;;;8.80;99.90;;;;;;4996538;28;20025;-68
2022/03/20 00:55:35;;;;;;;19.23;14.10;;;8.80;99.90;;;;;;4994409;28;20034;-68
2022/03/20 00:58:01;;;;;;;22.58;13.30;;;8.80;99.90;;;;;;4992449;28;20398;-68
2022/03/20 01:00:27;;;;;;;23.45;14.05;;;8.80;99.90;;;;;;4994249;28;20037;-68
2022/03/20 01:02:52;;;;;;;22.65;14.25;;;8.80;99.90;;;;;;4975102;28;20030;-68
2022/03/20 01:05:18;;;;;;;18.02;13.00;;;8.80;99.90;;;;;;4996276;28;20479;-68
2022/03/20 01:07:44;;;;;;;22.20;13.90;;;8.90;99.90;;;;;;4993071;28;20030;-68
2022/03/20 01:10:11;;;;;;;20.23;13.98;;;8.80;99.90;;;;;;4993151;28;20034;-68
2022/03/20 01:12:38;;;;;;;19.67;14.80;;;8.80;99.90;;;;;;4994199;28;20054;-68
2022/03/20 01:15:10;;;;;;;19.42;13.90;;;8.70;99.90;;;;;;4991144;28;20073;-68
2022/03/20 01:17:36;;;;;;;20.98;14.02;;;8.70;99.90;;;;;;4993321;28;20091;-68
2022/03/20 01:20:04;;;;;;;24.25;15.27;;;8.70;99.90;;;;;;4994483;28;20060;-68
2022/03/20 01:22:30;;;;;;;20.15;14.35;;;8.70;99.90;;;;;;4994323;28;20114;-67
2022/03/20 01:24:56;;;;;;;22.95;14.88;;;8.60;99.90;;;;;;4994110;28;20137;-68
2022/03/20 01:27:21;;;;;;;23.25;15.32;;;8.80;99.90;;;;;;4993140;28;20084;-68
2022/03/20 01:29:47;;;;;;;27.30;18.42;;;8.80;99.90;;;;;;4990597;28;20034;-68
2022/03/20 01:32:13;;;;;;;23.52;15.88;;;8.70;99.90;;;;;;4996584;28;20467;-68
2022/03/20 01:34:39;;;;;;;26.80;18.70;;;8.60;99.90;;;;;;4994018;28;20113;-68
2022/03/20 01:37:05;;;;;;;27.92;17.63;;;8.60;99.90;;;;;;4991434;28;20033;-68
2022/03/20 01:39:31;;;;;;;27.83;16.23;;;8.50;99.90;;;;;;4994014;28;20034;-68
2022/03/20 01:41:57;;;;;;;23.85;16.05;;;8.50;99.90;;;;;;4989470;28;20570;-68
2022/03/20 01:44:32;;;;;;;20.33;14.73;;;8.40;99.90;;;;;;4995338;28;20414;-68
2022/03/20 01:46:58;;;;;;;23.25;14.60;;;8.50;99.90;;;;;;4998882;28;20070;-68
2022/03/20 01:49:24;;;;;;;22.23;14.18;;;8.40;99.90;;;;;;4996076;28;20113;-68
2022/03/20 01:54:34;;;;;;;;;;;8.40;99.90;;;;;;4998599;28;20076;-68
2022/03/20 01:57:00;;;;;;;21.40;13.68;;;8.40;99.90;;;;;;4992113;28;19953;-67
2022/03/20 01:59:25;;;;;;;20.10;13.98;;;8.40;99.90;;;;;;4998233;28;20471;-68
2022/03/20 02:01:51;;;;;;;21.08;14.23;;;8.40;99.90;;;;;;4997767;28;20838;-68
2022/03/20 02:04:17;;;;;;;19.50;14.13;;;8.30;99.90;;;;;;4997269;28;20117;-68
2022/03/20 02:06:43;;;;;;;22.85;14.52;;;8.30;99.90;;;;;;4996929;28;20060;-68
2022/03/20 02:09:13;;;;;;;23.13;14.02;;;8.30;99.90;;;;;;4995049;28;20018;-68
2022/03/20 02:11:40;;;;;;;21.58;14.52;;;8.30;99.90;;;;;;4994622;28;20072;-68
2022/03/20 02:14:06;;;;;;;19.65;14.13;;;8.30;99.90;;;;;;4997001;28;20030;-68
2022/03/20 02:16:32;;;;;;;20.83;14.38;;;8.30;99.90;;;;;;4995418;28;20037;-68
2022/03/20 02:18:59;;;;;;;21.77;14.93;;;8.20;99.90;;;;;;4996907;28;20030;-67
2022/03/20 02:21:43;;;;;;;22.40;15.85;;;8.10;99.90;;;;;;4996503;28;20021;-68
2022/03/20 02:24:42;;;;;;;21.50;15.10;;;8.10;99.90;;;;;;4981258;28;20030;-68
2022/03/20 02:27:23;;;;;;;23.15;15.25;;;8.10;99.90;;;;;;4979817;28;20035;-68
2022/03/20 02:29:59;;;;;;;20.48;14.88;;;8.10;99.90;;;;;;4994137;28;20115;-67
2022/03/20 02:32:27;;;;;;;22.17;14.43;;;8.00;99.90;;;;;;5006515;28;20478;-68
2022/03/20 02:34:54;;;;;;;22.40;14.60;;;8.00;99.90;;;;;;4996003;28;20031;-68
2022/03/20 02:37:22;;;;;;;20.25;14.77;;;8.00;99.90;;;;;;4995281;28;20143;-68
2022/03/20 02:39:49;;;;;;;20.70;14.65;;;8.00;99.90;;;;;;4996161;28;20104;-68
2022/03/20 02:42:16;;;;;;;21.27;14.85;;;8.00;99.90;;;;;;4994979;28;20050;-67
2022/03/20 02:45:03;;;;;;;23.10;15.27;;;8.10;99.90;;;;;;4993718;28;20424;-68
2022/03/20 02:47:30;;;;;;;18.27;14.85;;;8.00;99.90;;;;;;5006166;28;20036;-68
2022/03/20 02:50:05;;;;;;;21.10;15.85;;;7.90;99.90;;;;;;4997088;28;20030;-68
2022/03/20 02:52:41;;;;;;;21.25;16.70;;;7.90;99.90;;;;;;4996255;28;20030;-68
2022/03/20 02:55:08;;;;;;;24.73;15.88;;;7.80;99.90;;;;;;4993080;28;20030;-68
2022/03/20 02:57:34;;;;;;;21.08;15.38;;;7.80;99.90;;;;;;4996437;28;20030;-68
2022/03/20 03:00:04;;;;;;;22.08;15.13;;;7.80;99.90;;;;;;4992453;28;22500;-68
2022/03/20 03:02:38;;;;;;;22.25;16.20;;;7.80;99.90;;;;;;4996263;28;20030;-68
2022/03/20 03:05:04;;;;;;;21.88;15.88;;;7.70;99.90;;;;;;4998240;28;20088;-67
2022/03/20 03:07:32;;;;;;;21.52;15.23;;;7.70;99.90;;;;;;4994793;28;20069;-67
2022/03/20 03:12:43;;;;;;;22.55;14.88;;;7.60;99.90;;;;;;4995954;28;20028;-68
2022/03/20 03:15:21;;;;;;;17.40;11.80;;;7.70;99.90;;;;;;4992072;28;20034;-68
2022/03/20 03:17:48;;;;;;;27.27;15.50;;;7.60;99.90;;;;;;4992696;28;20072;-68
2022/03/20 03:20:14;;;;;;;21.50;16.10;;;7.50;99.90;;;;;;4997961;28;20022;-68
2022/03/20 03:22:40;;;;;;;23.17;15.27;;;7.50;99.90;;;;;;4995428;28;20058;-68
2022/03/20 03:25:06;;;;;;;23.98;15.30;;;7.50;99.90;;;;;;4995476;28;20447;-68
2022/03/20 03:27:33;;;;;;;22.55;15.10;;;7.60;99.90;;;;;;4996048;28;20061;-68
2022/03/20 03:29:58;;;;;;;22.13;15.05;;;7.50;99.90;;;;;;4991624;28;20041;-68
2022/03/20 03:32:24;;;;;;;20.80;14.73;;;7.50;99.90;;;;;;4997376;28;20030;-68
2022/03/20 03:37:35;;;;;;;18.58;14.32;;;7.50;99.90;;;;;;4995482;28;20430;-68
2022/03/20 03:40:03;;;;;;;20.15;15.52;;;7.50;99.90;;;;;;4995132;28;20022;-68
2022/03/20 03:42:33;;;;;;;24.88;15.63;;;7.40;99.90;;;;;;4995805;28;20135;-68
2022/03/20 03:44:59;;;;;;;23.52;14.57;;;7.50;99.90;;;;;;4989999;28;20030;-68
2022/03/20 03:47:25;;;;;;;22.70;15.75;;;7.40;99.90;;;;;;4996997;28;20030;-68
2022/03/20 03:49:51;;;;;;;19.90;15.75;;;7.40;99.90;;;;;;4994053;28;20396;-68
2022/03/20 03:52:17;;;;;;;22.63;15.75;;;7.30;99.90;;;;;;4994963;28;20037;-68
2022/03/20 03:54:43;;;;;;;21.70;14.82;;;7.30;99.90;;;;;;4993763;28;21170;-68
2022/03/20 03:57:09;;;;;;;23.38;16.05;;;7.40;99.90;;;;;;4991384;28;20021;-69
2022/03/20 03:59:35;;;;;;;21.58;15.20;;;7.30;99.90;;;;;;4994529;28;20502;-68
2022/03/20 04:02:01;;;;;;;16.90;14.25;;;7.30;99.90;;;;;;4996526;28;20026;-69
2022/03/20 04:04:27;;;;;;;20.70;15.20;;;7.30;99.90;;;;;;4993631;28;20411;-69
2022/03/20 04:06:54;;;;;;;20.08;14.77;;;7.30;99.90;;;;;;4995036;28;20038;-68
2022/03/20 04:09:20;;;;;;;23.25;15.45;;;7.20;99.90;;;;;;4993492;28;20023;-69
2022/03/20 04:11:46;;;;;;;22.73;15.55;;;7.30;99.90;;;;;;4990454;28;20038;-68
2022/03/20 04:14:12;;;;;;;25.00;15.05;;;7.30;99.90;;;;;;4995729;28;20114;-69
2022/03/20 04:16:38;;;;;;;23.63;15.32;;;7.30;99.90;;;;;;4994880;28;20481;-69
2022/03/20 04:19:04;;;;;;;22.88;14.93;;;7.30;99.90;;;;;;4994691;28;20036;-68
2022/03/20 04:21:30;;;;;;;19.05;14.60;;;7.20;99.90;;;;;;4994874;28;20028;-68
2022/03/20 04:23:56;;;;;;;21.52;15.45;;;7.20;99.90;;;;;;4989419;28;20034;-68
2022/03/20 04:26:23;;;;;;;22.15;14.93;;;7.20;99.90;;;;;;5003709;28;20034;-68
2022/03/20 04:28:51;;;;;;;20.55;14.77;;;7.20;99.90;;;;;;4994990;28;20030;-68
2022/03/20 04:31:19;;;;;;;20.17;14.73;;;7.20;99.90;;;;;;4994644;28;20521;-69
2022/03/20 04:33:47;;;;;;;24.38;14.55;;;7.30;99.90;;;;;;4993326;28;20057;-69
2022/03/20 04:36:13;;;;;;;23.38;14.85;;;7.30;99.90;;;;;;4992724;28;20030;-68
2022/03/20 04:38:39;;;;;;;20.40;15.70;;;7.30;99.90;;;;;;4992405;28;20022;-68
2022/03/20 04:41:05;;;;;;;22.15;14.65;;;7.20;99.90;;;;;;4996236;28;20474;-68
2022/03/20 04:43:32;;;;;;;21.80;14.35;;;7.20;99.90;;;;;;4994643;28;20557;-68
2022/03/20 04:45:57;;;;;;;21.52;14.93;;;7.30;99.90;;;;;;4994382;28;20046;-69
2022/03/20 04:59:20;;;;;;;23.58;14.70;;;7.30;99.90;;;;;;4996507;28;20089;-68
2022/03/20 05:01:46;;;;;;;22.38;14.57;;;7.30;99.90;;;;;;4994408;28;20610;-68
2022/03/20 05:04:13;;;;;;;22.30;14.65;;;7.30;99.90;;;;;;4992843;28;20065;-68
2022/03/20 05:06:39;;;;;;;22.67;14.57;;;7.30;99.90;;;;;;4994196;28;20054;-68
2022/03/20 05:14:34;;;;;;;20.95;14.32;;;7.30;99.90;;;;;;5004792;28;20033;-68
2022/03/20 05:17:02;;;;;;;21.23;14.48;;;7.40;99.90;;;;;;4995573;28;20023;-68
2022/03/20 05:19:28;;;;;;;22.65;14.90;;;7.40;99.90;;;;;;4993774;28;20038;-68
2022/03/20 05:21:54;;;;;;;24.25;14.35;;;7.40;99.90;;;;;;4997859;28;20023;-68
2022/03/20 05:24:20;;;;;;;18.20;14.43;;;7.40;99.90;;;;;;4996978;28;20038;-68
2022/03/20 05:26:46;;;;;;;19.15;14.85;;;7.40;99.90;;;;;;4993502;28;20412;-68
2022/03/20 05:29:11;;;;;;;24.15;14.70;;;7.40;99.90;;;;;;5000253;28;20026;-68
2022/03/20 05:31:37;;;;;;;19.55;13.73;;;7.40;99.90;;;;;;4996496;28;20038;-69
2022/03/20 05:34:03;;;;;;;23.27;14.45;;;7.40;99.90;;;;;;4997517;28;20049;-69
2022/03/20 05:36:29;;;;;;;20.45;14.57;;;7.40;99.90;;;;;;4997964;28;20109;-69
2022/03/20 05:39:02;;;;;;;22.55;14.63;;;7.40;99.90;;;;;;4976056;28;20034;-69
2022/03/20 05:41:47;;;;;;;26.27;15.02;;;7.40;99.90;;;;;;5007158;28;20120;-69
2022/03/20 05:44:17;;;;;;;20.52;14.43;;;7.40;99.90;;;;;;4998341;28;20096;-69
2022/03/20 05:46:47;;;;;;;20.73;13.75;;;7.50;99.90;;;;;;4997796;28;20192;-68
2022/03/20 05:49:13;;;;;;;21.40;14.48;;;7.50;99.90;;;;;;4997069;28;20022;-68
2022/03/20 05:51:40;;;;;;;23.35;14.70;;;7.50;99.90;;;;;;4994951;28;20045;-68
2022/03/20 05:54:06;;;;;;;20.55;13.45;;;7.50;99.90;;;;;;4994658;28;20510;-68
2022/03/20 05:59:16;;;;;;;20.15;14.50;;;7.60;99.90;;;;;;4999997;28;20118;-68
2022/03/20 06:01:42;;;;;;;17.90;13.38;;;7.60;99.90;;;;;;4996617;28;20022;-68
2022/03/20 06:04:08;;;;;;;24.05;14.07;;;7.60;99.90;;;;;;4997647;28;20502;-68
2022/03/20 06:06:36;;;;;;;23.77;13.77;;;7.70;99.90;;;;;;4996847;28;20044;-68
2022/03/20 06:09:02;;;;;;;18.63;13.88;;;7.60;99.90;;;;;;4992003;28;20070;-68
2022/03/20 06:11:28;;;;;;;22.70;14.02;;;7.60;99.90;;;;;;4998416;28;20113;-68
2022/03/20 06:13:54;;;;;;;21.05;13.98;;;7.70;99.90;;;;;;4997627;28;20101;-68
2022/03/20 06:16:23;;;;;;;19.15;13.52;;;7.80;99.90;;;;;;4996711;28;20034;-68
2022/03/20 06:18:49;;;;;;;22.63;14.32;;;7.70;99.90;;;;;;4996841;28;20057;-68
2022/03/20 06:21:15;;;;;;;20.45;14.05;;;7.80;99.90;;;;;;4994043;28;20045;-68
2022/03/20 06:23:41;;;;;;;21.83;13.57;;;7.80;99.90;;;;;;4994868;28;20538;-68
2022/03/20 06:26:10;;;;;;;20.08;13.38;;;7.80;99.90;;;;;;4997454;28;20080;-68
2022/03/20 06:28:40;;;;;;;20.00;13.63;;;7.90;99.90;;;;;;4996691;28;20115;-68
2022/03/20 06:31:10;;;;;;;23.58;13.30;;;8.00;99.90;;;;;;4994730;28;20026;-68
2022/03/20 06:33:37;;;;;;;20.83;12.95;;;8.00;99.90;;;;;;4996618;28;20471;-68
2022/03/20 06:36:04;;;;;;;23.67;13.57;;;8.10;99.90;;;;;;4993163;28;20029;-68
2022/03/20 06:38:30;;;;;;;23.08;13.18;;;8.10;99.90;;;;;;4997360;28;20084;-68
2022/03/20 06:40:57;;;;;;;24.33;13.77;;;8.20;99.90;;;;;;4997207;28;20309;-68
2022/03/20 06:43:24;;;;;;;24.63;13.40;;;8.30;99.90;;;;;;4996476;28;20108;-68
2022/03/20 06:45:50;;;;;;;23.50;13.23;;;8.30;99.90;;;;;;4996056;28;20123;-68
2022/03/20 06:48:16;;;;;;;18.92;13.05;;;8.40;99.90;;;;;;4993471;28;20027;-68
2022/03/20 06:50:42;;;;;;;23.83;13.73;;;8.50;99.90;;;;;;4993942;28;20497;-68
2022/03/20 06:53:08;;;;;;;21.17;12.63;;;8.60;99.90;;;;;;4998435;28;20030;-68
2022/03/20 06:55:33;;;;;;;19.40;12.88;;;8.70;99.90;;;;;;4996312;28;20509;-68
2022/03/20 06:58:00;;;;;;;17.67;12.75;;;8.80;99.90;;;;;;4996625;28;20376;-68
2022/03/20 07:00:28;;;;;;;19.75;13.27;;;8.90;99.90;;;;;;4994023;28;20397;-68
2022/03/20 07:02:54;;;;;;;21.15;13.27;;;9.00;99.90;;;;;;4992487;28;20399;-68
2022/03/20 07:05:21;;;;;;;22.55;13.65;;;8.90;99.90;;;;;;4998188;28;20461;-68
2022/03/20 07:07:48;;;;;;;22.55;13.05;;;9.00;99.90;;;;;;4995891;28;20038;-68
2022/03/20 07:10:14;;;;;;;24.25;13.77;;;9.10;99.90;;;;;;4994715;28;20463;-68
2022/03/20 07:12:40;;;;;;;19.67;12.95;;;9.20;99.90;;;;;;4996187;28;20097;-68
2022/03/20 07:15:06;;;;;;;23.90;13.43;;;9.30;99.90;;;;;;4992417;28;20057;-68
2022/03/20 07:17:36;;;;;;;20.92;12.45;;;9.40;99.90;;;;;;4995969;28;20062;-68
2022/03/20 07:20:02;;;;;;;20.38;11.70;;;9.50;99.90;;;;;;4997435;28;20109;-68
2022/03/20 07:22:28;;;;;;;19.63;12.88;;;9.60;99.90;;;;;;4995967;28;20027;-68
2022/03/20 07:29:29;;;;;;;19.67;11.75;;;9.70;99.90;;;;;;4995752;28;20022;-68
2022/03/20 07:30:24;;;;;;;18.10;12.23;;;9.80;99.90;;;;;;4994552;28;20041;-68
2022/03/20 07:32:49;;;;;;;18.40;12.30;;;10.00;99.90;;;;;;4992405;28;22381;-68
2022/03/20 07:35:16;;;;;;;17.20;11.95;;;10.20;99.90;;;;;;4997673;28;20026;-68
2022/03/20 07:37:42;;;;;;;19.42;12.50;;;10.30;99.90;;;;;;4995443;28;20495;-68
2022/03/20 07:40:09;;;;;;;19.60;12.73;;;10.60;99.90;;;;;;4993834;28;20041;-68
2022/03/20 07:42:34;;;;;;;22.25;12.50;;;10.50;99.90;;;;;;4994610;28;20026;-68
2022/03/20 07:45:01;;;;;;;20.30;12.73;;;10.70;99.90;;;;;;4991509;28;20121;-68
2022/03/20 07:47:26;;;;;;;22.95;13.20;;;10.80;99.90;;;;;;4996974;28;20042;-67
2022/03/20 07:49:53;;;;;;;20.50;12.80;;;10.70;99.90;;;;;;4994241;28;20034;-67
2022/03/20 07:52:19;;;;;;;21.10;12.18;;;10.70;99.90;;;;;;4995286;28;20128;-67
2022/03/20 07:54:45;;;;;;;18.17;12.60;;;10.80;99.90;;;;;;4995045;28;20108;-67
2022/03/20 07:57:12;;;;;;;20.67;11.40;;;10.90;99.90;;;;;;4993291;28;20022;-67
2022/03/20 07:59:37;;;;;;;20.88;12.45;;;10.90;99.90;;;;;;4993516;28;20034;-67
2022/03/20 08:02:04;;;;;;;22.23;12.52;;;11.40;99.90;;;;;;4996552;28;20467;-68
2022/03/20 08:04:29;;;;;;;19.20;11.80;;;11.50;99.90;;;;;;4993764;28;20583;-67
2022/03/20 08:06:55;;;;;;;20.65;11.75;;;11.30;99.90;;;;;;4993393;28;20062;-68
2022/03/20 08:09:21;;;;;;;18.15;12.75;;;11.10;99.90;;;;;;4993928;28;20049;-69
2022/03/20 08:11:46;;;;;;;19.25;12.10;;;11.50;99.90;;;;;;4992257;28;20359;-69
2022/03/20 08:14:12;;;;;;;24.05;12.27;;;12.10;99.90;;;;;;4996734;28;20066;-69
2022/03/20 08:16:39;;;;;;;18.02;11.50;;;13.40;99.90;;;;;;4994839;28;20037;-68
2022/03/20 08:19:05;;;;;;;16.73;11.82;;;13.80;99.90;;;;;;4993368;28;20023;-68
2022/03/20 08:21:35;;;;;;;16.55;10.55;;;14.30;99.90;;;;;;4994841;28;20506;-69
2022/03/20 08:24:04;;;;;;;17.42;11.90;;;14.50;99.90;;;;;;4990958;28;20035;-68
2022/03/20 08:26:31;;;;;;;15.45;11.00;;;14.70;99.90;;;;;;4995230;28;20553;-68
2022/03/20 08:28:59;;;;;;;20.23;11.32;;;15.50;99.90;;;;;;4994481;28;20359;-68
2022/03/20 08:31:26;;;;;;;18.67;10.63;;;16.10;99.90;;;;;;4994573;28;20030;-68
2022/03/20 08:33:51;;;;;;;16.33;11.02;;;16.80;99.90;;;;;;4994804;28;20022;-68
2022/03/20 08:36:17;;;;;;;17.60;11.02;;;16.60;99.90;;;;;;4993351;28;20030;-68
2022/03/20 08:38:43;;;;;;;18.85;11.00;;;17.00;99.90;;;;;;4990727;28;20061;-69
2022/03/20 08:41:09;;;;;;;16.38;10.57;;;16.50;99.90;;;;;;4996203;28;20102;-68
2022/03/20 08:43:35;;;;;;;17.90;10.57;;;17.20;99.90;;;;;;4994555;28;20034;-68
2022/03/20 08:46:01;;;;;;;15.90;10.52;;;17.30;99.90;;;;;;4992781;28;20503;-68
2022/03/20 08:48:27;;;;;;;15.23;10.27;;;17.10;99.90;;;;;;4994582;28;20030;-68
2022/03/20 08:50:53;;;;;;;18.35;10.57;;;16.70;99.90;;;;;;4990430;28;20037;-68
2022/03/20 08:53:20;;;;;;;14.18;10.18;;;16.70;99.90;;;;;;4996716;28;20466;-68
2022/03/20 08:55:47;;;;;;;16.65;10.68;;;17.60;99.90;;;;;;4997695;28;20088;-68
2022/03/20 08:58:13;;;;;;;16.38;10.25;;;17.90;99.90;;;;;;4997383;28;20034;-68
2022/03/20 09:00:41;;;;;;;14.75;9.88;;;18.90;99.10;;;;;;4998866;28;20072;-68
2022/03/20 09:03:07;;;;;;;16.83;9.68;;;20.00;96.60;;;;;;4995581;28;20030;-68
2022/03/20 09:05:33;;;;;;;18.92;10.23;;;21.00;95.30;;;;;;4998262;28;20490;-68
2022/03/20 09:07:59;;;;;;;16.05;9.40;;;20.30;95.10;;;;;;4999239;28;20550;-68
2022/03/20 09:10:26;;;;;;;15.95;9.82;;;19.20;96.60;;;;;;4998536;28;20023;-69
2022/03/20 09:12:57;;;;;;;18.85;10.32;;;19.30;96.90;;;;;;4998160;28;20034;-68
2022/03/20 09:15:24;;;;;;;16.58;9.63;;;19.40;96.30;;;;;;4996235;28;20093;-69
2022/03/20 09:20:37;;;;;;;19.02;9.75;;;21.20;95.20;;;;;;5008405;28;20025;-68
2022/03/20 09:23:04;;;;;;;16.48;10.50;;;20.70;94.30;;;;;;4999617;28;20179;-69
2022/03/20 09:25:31;;;;;;;19.33;11.55;;;20.30;94.50;;;;;;4996593;28;20039;-69
2022/03/20 09:27:58;;;;;;;15.68;9.30;;;20.20;95.30;;;;;;4997913;28;20033;-69
2022/03/20 09:30:23;;;;;;;12.88;8.73;;;21.10;94.00;;;;;;4997349;28;20116;-69
2022/03/20 09:32:50;;;;;;;16.63;8.85;;;21.70;93.30;;;;;;4994367;28;20117;-68
2022/03/20 09:35:17;;;;;;;18.40;10.90;;;22.50;92.60;;;;;;4998816;28;20054;-68
2022/03/20 09:37:43;;;;;;;18.88;12.68;;;21.60;92.40;;;;;;4996439;28;20029;-68
2022/03/20 09:40:12;;;;;;;15.10;10.35;;;21.00;93.00;;;;;;4997303;28;20161;-68
2022/03/20 09:42:39;;;;;;;19.58;9.18;;;21.50;93.00;;;;;;4998097;28;20036;-68
2022/03/20 09:45:06;;;;;;;13.45;8.85;;;21.00;93.60;;;;;;4993250;28;20034;-68
2022/03/20 09:47:40;;;;;;;18.90;9.45;;;20.50;93.60;;;;;;4997831;28;20388;-69
2022/03/20 09:50:07;;;;;;;18.10;9.13;;;20.00;94.10;;;;;;4999929;28;20530;-68
2022/03/20 09:52:38;;;;;;;16.50;9.32;;;19.20;95.40;;;;;;4997557;28;20046;-68
2022/03/20 09:55:05;;;;;;;21.35;13.43;;;18.20;96.80;;;;;;4997216;28;20397;-68
2022/03/20 09:57:31;;;;;;;18.25;9.68;;;18.50;96.80;;;;;;4997531;28;20029;-68
2022/03/20 10:00:01;;;;;;;16.30;9.73;;;18.80;96.30;;;;;;4993410;28;20113;-68
2022/03/20 10:02:27;;;;;;;15.60;8.85;;;18.40;96.30;;;;;;5007371;28;20121;-68
2022/03/20 10:05:00;;;;;;;15.13;9.23;;;19.40;96.10;;;;;;4997891;28;20030;-68
2022/03/20 10:07:28;;;;;;;14.02;8.95;;;18.60;97.00;;;;;;4996372;28;20038;-69
2022/03/20 10:10:18;;;;;;;20.15;9.43;;;18.60;97.40;;;;;;4996937;28;20030;-69
2022/03/20 10:13:10;;;;;;;13.55;9.00;;;18.90;96.60;;;;;;4997239;28;20021;-69
2022/03/20 10:15:44;;;;;;;16.35;9.18;;;19.00;96.60;;;;;;4996306;28;20068;-69
2022/03/20 10:18:18;;;;;;;15.93;8.60;;;19.60;96.00;;;;;;4994844;28;20053;-69
2022/03/20 10:20:49;;;;;;;17.52;9.45;;;19.70;95.70;;;;;;4994075;28;20034;-68
2022/03/20 10:23:34;;;;;;;17.73;10.50;;;19.70;96.10;;;;;;4998904;28;20443;-68
2022/03/20 10:26:04;;;;;;;14.68;9.10;;;19.70;96.20;;;;;;4998308;28;20041;-68
2022/03/20 10:28:35;;;;;;;14.05;9.07;;;19.00;96.60;;;;;;4997007;28;20030;-69
2022/03/20 10:31:03;;;;;;;16.83;9.45;;;18.40;97.70;;;;;;4996857;28;20125;-69
2022/03/20 10:33:29;;;;;;;15.93;8.80;;;17.90;98.30;;;;;;4996949;28;20117;-69
2022/03/20 10:36:15;;;;;;;16.98;8.65;;;17.80;98.80;;;;;;4977156;28;20105;-69
2022/03/20 10:38:43;;;;;;;19.55;9.35;;;18.30;98.40;;;;;;5006579;28;20030;-69
2022/03/20 10:41:34;;;;;;;16.02;9.05;;;18.60;98.30;;;;;;4996671;28;20132;-69
2022/03/20 10:44:02;;;;;;;14.82;9.00;;;18.80;97.70;;;;;;4997672;28;20060;-69
2022/03/20 10:46:30;;;;;;;12.23;8.77;;;18.80;97.50;;;;;;4996530;28;20073;-69
2022/03/20 10:48:58;;;;;;;14.98;8.93;;;18.60;98.60;;;;;;4996565;28;20084;-69
2022/03/20 10:51:41;;;;;;;14.90;8.82;;;18.60;98.20;;;;;;4996421;28;20030;-69
2022/03/20 10:54:11;;;;;;;16.35;9.25;;;18.60;98.70;;;;;;4978348;28;20515;-69
2022/03/20 10:56:38;;;;;;;15.40;8.63;;;19.20;98.00;;;;;;4995384;28;20029;-69
2022/03/20 10:59:16;;;;;;;14.15;8.23;;;19.70;97.20;;;;;;4998018;28;20034;-69
2022/03/20 11:01:45;;;;;;;16.15;8.10;;;19.70;97.60;;;;;;4996497;28;20038;-69
2022/03/20 11:04:13;;;;;;;14.25;8.43;;;19.40;97.60;;;;;;4995392;28;20037;-69
2022/03/20 11:06:43;;;;;;;15.02;7.90;;;19.00;97.90;;;;;;4995772;28;20080;-68
2022/03/20 11:09:09;;;;;;;14.05;8.38;;;19.20;97.60;;;;;;4993396;28;20027;-69
2022/03/20 11:11:44;;;;;;;14.23;8.70;;;19.20;97.60;;;;;;4995597;28;20471;-69
2022/03/20 11:14:13;;;;;;;14.05;8.15;;;19.00;97.80;;;;;;4995590;28;20066;-69
2022/03/20 11:16:42;;;;;;;13.95;8.13;;;19.20;97.90;;;;;;4996083;28;20034;-70
2022/03/20 11:19:13;;;;;;;16.60;9.27;;;19.00;97.50;;;;;;4994983;28;20117;-69
2022/03/20 11:21:43;;;;;;;15.50;8.55;;;18.80;97.80;;;;;;4994191;28;20026;-69
2022/03/20 11:24:09;;;;;;;14.27;8.80;;;19.20;97.90;;;;;;4993543;28;20034;-69
2022/03/20 11:26:39;;;;;;;17.13;8.82;;;18.80;98.20;;;;;;4994916;28;20038;-68
2022/03/20 11:29:08;;;;;;;16.08;9.38;;;19.30;98.30;;;;;;4997828;28;20435;-69
2022/03/20 11:31:36;;;;;;;17.48;9.98;;;18.70;98.20;;;;;;4993752;28;20121;-69
2022/03/20 11:34:06;;;;;;;13.57;8.00;;;18.60;98.40;;;;;;4994359;28;20542;-69
2022/03/20 11:36:32;;;;;;;13.30;8.27;;;19.10;97.80;;;;;;4995291;28;20053;-69
2022/03/20 11:39:10;;;;;;;14.00;8.10;;;19.20;97.70;;;;;;4991841;28;20031;-68
2022/03/20 11:41:36;;;;;;;15.77;8.30;;;19.10;97.40;;;;;;4994852;28;20125;-69
2022/03/20 11:44:11;;;;;;;13.48;8.73;;;19.10;97.90;;;;;;4994077;28;20467;-69
2022/03/20 11:46:37;;;;;;;11.48;7.70;;;19.50;97.40;;;;;;4995423;28;20046;-69
2022/03/20 11:49:17;;;;;;;16.90;9.75;;;19.70;96.80;;;;;;4995414;28;20026;-68
2022/03/20 11:52:06;;;;;;;18.45;8.43;;;18.80;98.10;;;;;;4995095;28;20469;-68
2022/03/20 11:54:52;;;;;;;14.23;8.23;;;19.30;98.40;;;;;;4995845;28;20053;-68
2022/03/20 11:57:29;;;;;;;15.30;8.68;;;19.60;97.80;;;;;;4994037;28;20022;-69
2022/03/20 12:00:10;;;;;;;16.85;8.65;;;18.50;98.70;;;;;;4974679;28;20030;-69
2022/03/20 12:02:36;;;;;;;14.15;8.48;;;18.60;98.80;;;;;;5005425;28;20171;-69
2022/03/20 12:05:09;;;;;;;16.88;8.60;;;19.30;98.50;;;;;;4996332;28;20037;-69
2022/03/20 12:07:41;;;;;;;16.45;8.27;;;19.00;98.10;;;;;;4994997;28;20038;-68
2022/03/20 12:10:21;;;;;;;13.75;7.97;;;19.00;97.90;;;;;;4995174;28;20168;-68
2022/03/20 12:13:10;;;;;;;14.73;8.20;;;19.20;98.20;;;;;;4993818;28;20068;-68
2022/03/20 12:15:44;;;;;;;15.82;8.10;;;19.40;97.90;;;;;;4995145;28;20426;-69
2022/03/20 12:18:11;;;;;;;13.30;8.20;;;19.30;97.70;;;;;;4992401;28;20065;-69
2022/03/20 12:20:51;;;;;;;13.52;7.80;;;19.30;97.80;;;;;;4993670;28;20026;-69
2022/03/20 12:23:45;;;;;;;16.38;8.63;;;19.70;97.70;;;;;;4996406;28;20065;-69
2022/03/20 12:26:43;;;;;;;13.98;8.27;;;19.60;97.40;;;;;;4995314;28;20046;-68
2022/03/20 12:29:38;;;;;;;12.88;8.00;;;19.30;98.00;;;;;;4994574;28;20402;-69
2022/03/20 12:32:12;;;;;;;12.15;7.95;;;19.10;98.40;;;;;;4993245;28;20045;-69
2022/03/20 12:34:43;;;;;;;14.43;8.38;;;19.50;98.00;;;;;;4996464;28;20118;-68
2022/03/20 12:37:38;;;;;;;16.58;7.80;;;19.40;97.50;;;;;;4994867;28;20030;-69
2022/03/20 12:40:18;;;;;;;15.10;7.90;;;19.20;98.10;;;;;;4989040;28;20083;-68
2022/03/20 12:42:59;;;;;;;14.07;7.80;;;19.60;97.30;;;;;;4994731;28;20038;-68
2022/03/20 12:45:27;;;;;;;16.50;8.52;;;19.10;97.30;;;;;;4994062;28;20409;-68
2022/03/20 12:48:00;;;;;;;13.90;8.63;;;18.90;97.70;;;;;;4990316;28;20022;-69
2022/03/20 12:50:29;;;;;;;13.38;7.45;;;18.90;98.30;;;;;;5004194;28;20026;-69
2022/03/20 12:53:17;;;;;;;12.95;8.27;;;18.80;98.10;;;;;;4995321;28;20105;-68
2022/03/20 12:55:54;;;;;;;15.10;8.52;;;19.00;98.10;;;;;;4994583;28;20077;-68
2022/03/20 12:58:20;;;;;;;17.83;8.63;;;19.70;97.70;;;;;;4994536;28;20030;-68
2022/03/20 13:00:46;;;;;;;14.50;8.00;;;19.60;97.70;;;;;;4993232;28;20033;-68
2022/03/20 13:03:16;;;;;;;19.52;8.70;;;19.30;98.00;;;;;;4992056;28;20027;-68
2022/03/20 13:05:57;;;;;;;13.45;7.75;;;19.50;97.60;;;;;;4992261;28;20023;-68
2022/03/20 13:08:31;;;;;;;16.50;8.43;;;19.60;97.50;;;;;;4996293;28;20046;-68
2022/03/20 13:14:12;;;;;;;15.43;8.23;;;19.20;98.80;;;;;;4994239;28;20040;-69
2022/03/20 13:16:54;;;;;;;12.48;8.18;;;18.90;98.00;;;;;;4993993;28;20057;-68
2022/03/20 13:19:42;;;;;;;15.60;8.60;;;18.90;98.80;;;;;;4992712;28;20030;-68
2022/03/20 13:22:09;;;;;;;17.20;8.75;;;19.30;98.40;;;;;;4994612;28;20038;-68